sensor_id;sensor_type;location;lat;lon;timestamp;pressure;altitude;pressure_sealevel;temperature;humidity
68889;BME280;55930;47.412;8.790;2022-10-16T00:01:09;94633.56;;;12.36;100.00
68889;BME280;55930;47.412;8.790;2022-10-16T00:03:36;94630.91;;;12.36;100.00
68889;BME280;55930;47.412;8.790;2022-10-16T00:06:02;94633.28;;;12.34;100.00
68889;BME280;55930;47.412;8.790;2022-10-16T00:08:30;94629.88;;;12.34;100.00
68889;BME280;55930;47.412;8.790;2022-10-16T00:11:07;94621.38;;;12.30;100.00
68889;BME280;55930;47.412;8.790;2022-10-16T00:13:34;94617.78;;;12.33;100.00
68889;BME280;55930;47.412;8.790;2022-10-16T00:16:00;94619.53;;;12.36;100.00
68889;BME280;55930;47.412;8.790;2022-10-16T00:18:29;94622.41;;;12.38;100.00
68889;BME280;55930;47.412;8.790;2022-10-16T00:21:02;94616.91;;;12.41;100.00
68889;BME280;55930;47.412;8.790;2022-10-16T00:23:30;94617.69;;;12.47;100.00
68889;BME280;55930;47.412;8.790;2022-10-16T00:26:01;94618.88;;;12.46;100.00
68889;BME280;55930;47.412;8.790;2022-10-16T00:28:32;94609.25;;;12.49;100.00
68889;BME280;55930;47.412;8.790;2022-10-16T00:30:58;94616.28;;;12.52;100.00
68889;BME280;55930;47.412;8.790;2022-10-16T00:33:23;94616.28;;;12.52;100.00
68889;BME280;55930;47.412;8.790;2022-10-16T00:35:49;94617.28;;;12.54;100.00
68889;BME280;55930;47.412;8.790;2022-10-16T00:38:15;94615.97;;;12.44;100.00
68889;BME280;55930;47.412;8.790;2022-10-16T00:40:46;94619.41;;;12.50;100.00
68889;BME280;55930;47.412;8.790;2022-10-16T00:46:27;94620.47;;;12.58;100.00
68889;BME280;55930;47.412;8.790;2022-10-16T00:49:01;94622.88;;;12.56;100.00
68889;BME280;55930;47.412;8.790;2022-10-16T00:51:53;94624.84;;;12.61;100.00
68889;BME280;55930;47.412;8.790;2022-10-16T00:54:25;94623.41;;;12.60;100.00
68889;BME280;55930;47.412;8.790;2022-10-16T00:56:52;94625.25;;;12.54;100.00
68889;BME280;55930;47.412;8.790;2022-10-16T00:59:23;94626.06;;;12.60;100.00
68889;BME280;55930;47.412;8.790;2022-10-16T01:01:50;94624.44;;;12.69;100.00
68889;BME280;55930;47.412;8.790;2022-10-16T01:04:16;94633.88;;;12.70;100.00
68889;BME280;55930;47.412;8.790;2022-10-16T01:09:36;94628.53;;;12.70;100.00
68889;BME280;55930;47.412;8.790;2022-10-16T01:12:18;94641.84;;;12.70;100.00
68889;BME280;55930;47.412;8.790;2022-10-16T01:14:56;94631.69;;;12.68;100.00
68889;BME280;55930;47.412;8.790;2022-10-16T01:22:57;94635.56;;;12.67;100.00
68889;BME280;55930;47.412;8.790;2022-10-16T01:28:21;94638.53;;;12.75;100.00
68889;BME280;55930;47.412;8.790;2022-10-16T01:30:52;94641.91;;;12.75;100.00
68889;BME280;55930;47.412;8.790;2022-10-16T01:33:25;94643.31;;;12.71;100.00
68889;BME280;55930;47.412;8.790;2022-10-16T01:35:55;94639.19;;;12.70;100.00
68889;BME280;55930;47.412;8.790;2022-10-16T01:40:58;94633.88;;;12.70;100.00
68889;BME280;55930;47.412;8.790;2022-10-16T01:43:30;94640.22;;;12.78;100.00
68889;BME280;55930;47.412;8.790;2022-10-16T01:45:57;94641.50;;;12.82;100.00
68889;BME280;55930;47.412;8.790;2022-10-16T01:48:26;94644.16;;;12.82;100.00
68889;BME280;55930;47.412;8.790;2022-10-16T01:51:03;94644.38;;;12.79;100.00
68889;BME280;55930;47.412;8.790;2022-10-16T01:53:32;94650.09;;;12.72;100.00
68889;BME280;55930;47.412;8.790;2022-10-16T01:55:59;94641.13;;;12.69;100.00
68889;BME280;55930;47.412;8.790;2022-10-16T01:58:26;94642.34;;;12.68;100.00
68889;BME280;55930;47.412;8.790;2022-10-16T02:00:54;94643.06;;;12.69;100.00
68889;BME280;55930;47.412;8.790;2022-10-16T02:03:20;94650.78;;;12.67;100.00
68889;BME280;55930;47.412;8.790;2022-10-16T02:05:55;94645.97;;;12.71;100.00
68889;BME280;55930;47.412;8.790;2022-10-16T02:08:23;94643.31;;;12.71;100.00
68889;BME280;55930;47.412;8.790;2022-10-16T02:10:49;94642.81;;;12.67;100.00
68889;BME280;55930;47.412;8.790;2022-10-16T02:13:23;94633.34;;;12.65;100.00
68889;BME280;55930;47.412;8.790;2022-10-16T02:15:51;94630.66;;;12.60;100.00
68889;BME280;55930;47.412;8.790;2022-10-16T02:18:16;94647.09;;;12.58;100.00
68889;BME280;55930;47.412;8.790;2022-10-16T02:23:43;94640.72;;;12.50;100.00
68889;BME280;55930;47.412;8.790;2022-10-16T02:26:15;94650.50;;;12.39;100.00
68889;BME280;55930;47.412;8.790;2022-10-16T02:28:46;94645.63;;;12.37;100.00
68889;BME280;55930;47.412;8.790;2022-10-16T02:31:21;94655.28;;;12.35;100.00
68889;BME280;55930;47.412;8.790;2022-10-16T02:33:50;94665.16;;;12.29;100.00
68889;BME280;55930;47.412;8.790;2022-10-16T02:36:20;94666.53;;;12.24;100.00
68889;BME280;55930;47.412;8.790;2022-10-16T02:38:46;94669.59;;;12.17;100.00
68889;BME280;55930;47.412;8.790;2022-10-16T02:41:12;94669.59;;;12.17;100.00
68889;BME280;55930;47.412;8.790;2022-10-16T02:43:38;94665.69;;;12.12;100.00
68889;BME280;55930;47.412;8.790;2022-10-16T02:46:03;94666.25;;;12.02;100.00
68889;BME280;55930;47.412;8.790;2022-10-16T02:48:31;94660.69;;;12.00;100.00
68889;BME280;55930;47.412;8.790;2022-10-16T02:50:57;94662.88;;;12.01;100.00
68889;BME280;55930;47.412;8.790;2022-10-16T02:53:24;94667.47;;;12.01;100.00
68889;BME280;55930;47.412;8.790;2022-10-16T02:55:50;94660.41;;;11.98;100.00
68889;BME280;55930;47.412;8.790;2022-10-16T02:58:15;94661.41;;;12.00;100.00
68889;BME280;55930;47.412;8.790;2022-10-16T03:00:41;94657.22;;;11.94;100.00
68889;BME280;55930;47.412;8.790;2022-10-16T03:03:07;94648.44;;;11.87;100.00
68889;BME280;55930;47.412;8.790;2022-10-16T03:05:34;94646.31;;;11.92;100.00
68889;BME280;55930;47.412;8.790;2022-10-16T03:08:00;94641.84;;;11.83;100.00
68889;BME280;55930;47.412;8.790;2022-10-16T03:10:27;94642.84;;;11.85;100.00
68889;BME280;55930;47.412;8.790;2022-10-16T03:12:53;94651.03;;;12.22;100.00
68889;BME280;55930;47.412;8.790;2022-10-16T03:15:18;94656.81;;;12.41;100.00
68889;BME280;55930;47.412;8.790;2022-10-16T03:17:44;94655.03;;;12.53;100.00
68889;BME280;55930;47.412;8.790;2022-10-16T03:20:09;94657.53;;;12.42;100.00
68889;BME280;55930;47.412;8.790;2022-10-16T03:22:37;94662.28;;;12.52;100.00
68889;BME280;55930;47.412;8.790;2022-10-16T03:25:03;94663.59;;;12.42;100.00
68889;BME280;55930;47.412;8.790;2022-10-16T03:27:31;94657.91;;;12.29;100.00
68889;BME280;55930;47.412;8.790;2022-10-16T03:29:56;94667.13;;;12.34;100.00
68889;BME280;55930;47.412;8.790;2022-10-16T03:32:22;94666.59;;;12.30;100.00
68889;BME280;55930;47.412;8.790;2022-10-16T03:34:47;94665.06;;;12.23;100.00
68889;BME280;55930;47.412;8.790;2022-10-16T03:37:16;94669.78;;;12.13;100.00
68889;BME280;55930;47.412;8.790;2022-10-16T03:39:41;94673.13;;;12.08;100.00
68889;BME280;55930;47.412;8.790;2022-10-16T03:42:06;94679.56;;;12.02;100.00
68889;BME280;55930;47.412;8.790;2022-10-16T03:44:32;94677.47;;;11.91;100.00
68889;BME280;55930;47.412;8.790;2022-10-16T03:46:57;94678.22;;;11.92;100.00
68889;BME280;55930;47.412;8.790;2022-10-16T03:49:23;94682.00;;;11.85;100.00
68889;BME280;55930;47.412;8.790;2022-10-16T03:51:50;94683.41;;;11.80;100.00
68889;BME280;55930;47.412;8.790;2022-10-16T03:54:16;94682.66;;;11.80;100.00
68889;BME280;55930;47.412;8.790;2022-10-16T03:56:41;94679.63;;;11.72;100.00
68889;BME280;55930;47.412;8.790;2022-10-16T03:59:06;94687.69;;;11.78;100.00
68889;BME280;55930;47.412;8.790;2022-10-16T04:01:34;94679.44;;;11.76;100.00
68889;BME280;55930;47.412;8.790;2022-10-16T04:04:00;94685.69;;;11.73;100.00
68889;BME280;55930;47.412;8.790;2022-10-16T04:06:25;94681.06;;;11.73;100.00
68889;BME280;55930;47.412;8.790;2022-10-16T04:08:50;94681.28;;;11.70;100.00
68889;BME280;55930;47.412;8.790;2022-10-16T04:11:16;94681.47;;;11.66;100.00
68889;BME280;55930;47.412;8.790;2022-10-16T04:13:41;94675.06;;;11.58;100.00
68889;BME280;55930;47.412;8.790;2022-10-16T04:16:09;94677.25;;;11.60;100.00
68889;BME280;55930;47.412;8.790;2022-10-16T04:18:34;94682.56;;;11.60;100.00
68889;BME280;55930;47.412;8.790;2022-10-16T04:21:04;94686.25;;;11.62;100.00
68889;BME280;55930;47.412;8.790;2022-10-16T04:23:30;94680.38;;;11.58;100.00
68889;BME280;55930;47.412;8.790;2022-10-16T04:25:55;94694.22;;;11.62;100.00
68889;BME280;55930;47.412;8.790;2022-10-16T04:28:20;94690.28;;;11.58;100.00
68889;BME280;55930;47.412;8.790;2022-10-16T04:30:46;94689.28;;;11.55;100.00
68889;BME280;55930;47.412;8.790;2022-10-16T04:33:16;94689.81;;;11.59;100.00
68889;BME280;55930;47.412;8.790;2022-10-16T04:35:41;94695.97;;;11.65;100.00
68889;BME280;55930;47.412;8.790;2022-10-16T04:38:06;94694.56;;;11.70;100.00
68889;BME280;55930;47.412;8.790;2022-10-16T04:40:32;94692.91;;;11.72;100.00
68889;BME280;55930;47.412;8.790;2022-10-16T04:43:00;94695.31;;;11.70;100.00
68889;BME280;55930;47.412;8.790;2022-10-16T04:45:25;94700.88;;;11.72;100.00
68889;BME280;55930;47.412;8.790;2022-10-16T04:47:51;94698.50;;;11.74;100.00
68889;BME280;55930;47.412;8.790;2022-10-16T04:50:16;94704.66;;;11.80;100.00
68889;BME280;55930;47.412;8.790;2022-10-16T04:52:42;94702.97;;;11.83;100.00
68889;BME280;55930;47.412;8.790;2022-10-16T04:55:07;94709.13;;;11.89;100.00
68889;BME280;55930;47.412;8.790;2022-10-16T04:57:33;94701.88;;;11.89;100.00
68889;BME280;55930;47.412;8.790;2022-10-16T04:59:58;94708.47;;;11.94;100.00
68889;BME280;55930;47.412;8.790;2022-10-16T05:02:24;94707.38;;;11.86;100.00
68889;BME280;55930;47.412;8.790;2022-10-16T05:04:49;94711.50;;;11.87;100.00
68889;BME280;55930;47.412;8.790;2022-10-16T05:07:15;94717.00;;;11.83;100.00
68889;BME280;55930;47.412;8.790;2022-10-16T05:09:42;94707.31;;;11.80;100.00
68889;BME280;55930;47.412;8.790;2022-10-16T05:12:10;94719.59;;;11.78;100.00
68889;BME280;55930;47.412;8.790;2022-10-16T05:14:35;94718.47;;;11.70;100.00
68889;BME280;55930;47.412;8.790;2022-10-16T05:17:01;94714.81;;;11.67;100.00
68889;BME280;55930;47.412;8.790;2022-10-16T05:19:29;94717.69;;;11.64;100.00
68889;BME280;55930;47.412;8.790;2022-10-16T05:21:54;94712.00;;;11.56;100.00
68889;BME280;55930;47.412;8.790;2022-10-16T05:24:20;94716.69;;;11.46;100.00
68889;BME280;55930;47.412;8.790;2022-10-16T05:26:45;94715.03;;;11.49;100.00
68889;BME280;55930;47.412;8.790;2022-10-16T05:29:10;94709.44;;;11.47;100.00
68889;BME280;55930;47.412;8.790;2022-10-16T05:31:38;94713.28;;;11.46;100.00
68889;BME280;55930;47.412;8.790;2022-10-16T05:34:03;94708.63;;;11.41;100.00
68889;BME280;55930;47.412;8.790;2022-10-16T05:36:29;94704.41;;;11.49;100.00
68889;BME280;55930;47.412;8.790;2022-10-16T05:38:54;94703.47;;;11.52;100.00
68889;BME280;55930;47.412;8.790;2022-10-16T05:41:20;94712.91;;;11.53;100.00
68889;BME280;55930;47.412;8.790;2022-10-16T05:43:47;94710.19;;;11.47;100.00
68889;BME280;55930;47.412;8.790;2022-10-16T05:46:13;94714.84;;;11.52;100.00
68889;BME280;55930;47.412;8.790;2022-10-16T05:48:38;94715.50;;;11.47;100.00
68889;BME280;55930;47.412;8.790;2022-10-16T05:51:06;94722.63;;;11.56;100.00
68889;BME280;55930;47.412;8.790;2022-10-16T05:53:34;94716.94;;;11.63;100.00
68889;BME280;55930;47.412;8.790;2022-10-16T05:56:02;94721.06;;;11.64;100.00
68889;BME280;55930;47.412;8.790;2022-10-16T05:58:34;94726.47;;;11.70;100.00
68889;BME280;55930;47.412;8.790;2022-10-16T06:01:07;94729.84;;;11.85;100.00
68889;BME280;55930;47.412;8.790;2022-10-16T06:03:34;94729.84;;;11.85;100.00
68889;BME280;55930;47.412;8.790;2022-10-16T06:06:13;94728.25;;;11.93;100.00
68889;BME280;55930;47.412;8.790;2022-10-16T06:08:41;94733.66;;;11.99;100.00
68889;BME280;55930;47.412;8.790;2022-10-16T06:11:09;94731.16;;;12.10;100.00
68889;BME280;55930;47.412;8.790;2022-10-16T06:13:35;94735.28;;;12.11;100.00
68889;BME280;55930;47.412;8.790;2022-10-16T06:16:01;94741.00;;;12.24;100.00
68889;BME280;55930;47.412;8.790;2022-10-16T06:18:30;94738.94;;;12.34;100.00
68889;BME280;55930;47.412;8.790;2022-10-16T06:20:56;94741.03;;;12.44;100.00
68889;BME280;55930;47.412;8.790;2022-10-16T06:23:22;94748.84;;;12.53;100.00
68889;BME280;55930;47.412;8.790;2022-10-16T06:25:48;94757.66;;;12.59;100.00
68889;BME280;55930;47.412;8.790;2022-10-16T06:28:14;94755.78;;;12.65;100.00
68889;BME280;55930;47.412;8.790;2022-10-16T06:30:39;94753.00;;;12.75;100.00
68889;BME280;55930;47.412;8.790;2022-10-16T06:33:09;94752.38;;;12.85;100.00
68889;BME280;55930;47.412;8.790;2022-10-16T06:35:38;94756.25;;;12.84;100.00
68889;BME280;55930;47.412;8.790;2022-10-16T06:38:03;94762.38;;;12.90;100.00
68889;BME280;55930;47.412;8.790;2022-10-16T06:40:30;94767.16;;;12.86;100.00
68889;BME280;55930;47.412;8.790;2022-10-16T06:42:56;94762.56;;;12.87;100.00
68889;BME280;55930;47.412;8.790;2022-10-16T06:45:21;94761.63;;;12.90;100.00
68889;BME280;55930;47.412;8.790;2022-10-16T06:47:47;94763.56;;;12.89;100.00
68889;BME280;55930;47.412;8.790;2022-10-16T06:50:12;94775.69;;;12.90;100.00
68889;BME280;55930;47.412;8.790;2022-10-16T06:52:40;94771.44;;;13.04;100.00
68889;BME280;55930;47.412;8.790;2022-10-16T06:55:05;94775.31;;;13.03;100.00
68889;BME280;55930;47.412;8.790;2022-10-16T06:57:33;94782.31;;;13.21;100.00
68889;BME280;55930;47.412;8.790;2022-10-16T06:59:58;94780.13;;;13.45;100.00
68889;BME280;55930;47.412;8.790;2022-10-16T07:02:24;94790.03;;;13.45;100.00
68889;BME280;55930;47.412;8.790;2022-10-16T07:04:52;94786.03;;;13.55;100.00
68889;BME280;55930;47.412;8.790;2022-10-16T07:07:17;94802.78;;;13.61;100.00
68889;BME280;55930;47.412;8.790;2022-10-16T07:09:42;94802.38;;;13.68;100.00
68889;BME280;55930;47.412;8.790;2022-10-16T07:12:08;94805.13;;;13.79;100.00
68889;BME280;55930;47.412;8.790;2022-10-16T07:14:33;94811.06;;;13.94;100.00
68889;BME280;55930;47.412;8.790;2022-10-16T07:16:59;94814.97;;;13.99;100.00
68889;BME280;55930;47.412;8.790;2022-10-16T07:19:24;94817.31;;;14.23;100.00
68889;BME280;55930;47.412;8.790;2022-10-16T07:21:50;94828.88;;;14.40;100.00
68889;BME280;55930;47.412;8.790;2022-10-16T07:24:16;94827.69;;;14.46;100.00
68889;BME280;55930;47.412;8.790;2022-10-16T07:26:43;94821.63;;;14.46;100.00
68889;BME280;55930;47.412;8.790;2022-10-16T07:29:15;94828.94;;;14.51;100.00
68889;BME280;55930;47.412;8.790;2022-10-16T07:31:41;94828.16;;;14.45;100.00
68889;BME280;55930;47.412;8.790;2022-10-16T07:34:07;94834.00;;;14.43;100.00
68889;BME280;55930;47.412;8.790;2022-10-16T07:36:37;94839.69;;;14.31;100.00
68889;BME280;55930;47.412;8.790;2022-10-16T07:39:03;94838.38;;;14.15;100.00
68889;BME280;55930;47.412;8.790;2022-10-16T07:41:29;94846.00;;;13.96;100.00
68889;BME280;55930;47.412;8.790;2022-10-16T07:43:55;94841.72;;;13.78;100.00
68889;BME280;55930;47.412;8.790;2022-10-16T07:46:25;94848.72;;;13.76;100.00
68889;BME280;55930;47.412;8.790;2022-10-16T07:48:50;94851.19;;;13.79;100.00
68889;BME280;55930;47.412;8.790;2022-10-16T07:51:24;94854.75;;;13.71;100.00
68889;BME280;55930;47.412;8.790;2022-10-16T07:53:49;94850.50;;;15.60;100.00
68889;BME280;55930;47.412;8.790;2022-10-16T07:56:19;94861.59;;;18.62;84.41
68889;BME280;55930;47.412;8.790;2022-10-16T07:58:45;94861.91;;;20.14;76.32
68889;BME280;55930;47.412;8.790;2022-10-16T08:01:13;94857.16;;;20.79;69.98
68889;BME280;55930;47.412;8.790;2022-10-16T08:03:45;94868.16;;;21.33;66.57
68889;BME280;55930;47.412;8.790;2022-10-16T08:06:13;94871.72;;;21.75;62.66
68889;BME280;55930;47.412;8.790;2022-10-16T08:08:41;94869.28;;;22.40;59.96
68889;BME280;55930;47.412;8.790;2022-10-16T08:11:07;94873.88;;;23.38;56.02
68889;BME280;55930;47.412;8.790;2022-10-16T08:13:33;94865.47;;;24.23;53.43
68889;BME280;55930;47.412;8.790;2022-10-16T08:15:59;94871.59;;;24.16;56.52
68889;BME280;55930;47.412;8.790;2022-10-16T08:18:25;94862.19;;;24.85;53.16
68889;BME280;55930;47.412;8.790;2022-10-16T08:20:57;94862.69;;;25.22;51.32
68889;BME280;55930;47.412;8.790;2022-10-16T08:23:24;94867.19;;;25.27;51.51
68889;BME280;55930;47.412;8.790;2022-10-16T08:25:51;94857.56;;;26.13;48.46
68889;BME280;55930;47.412;8.790;2022-10-16T08:28:20;94865.97;;;27.17;46.60
68889;BME280;55930;47.412;8.790;2022-10-16T08:30:45;94871.03;;;27.20;44.62
68889;BME280;55930;47.412;8.790;2022-10-16T08:33:11;94871.16;;;26.88;44.68
68889;BME280;55930;47.412;8.790;2022-10-16T08:35:36;94870.16;;;26.01;45.92
68889;BME280;55930;47.412;8.790;2022-10-16T08:38:05;94884.50;;;26.76;45.87
68889;BME280;55930;47.412;8.790;2022-10-16T08:40:33;94876.47;;;26.61;45.49
68889;BME280;55930;47.412;8.790;2022-10-16T08:50:47;94877.63;;;30.85;34.38
68889;BME280;55930;47.412;8.790;2022-10-16T08:53:44;94877.38;;;31.44;33.42
68889;BME280;55930;47.412;8.790;2022-10-16T08:56:12;94884.06;;;31.74;32.94
68889;BME280;55930;47.412;8.790;2022-10-16T08:58:38;94882.22;;;32.00;30.95
68889;BME280;55930;47.412;8.790;2022-10-16T09:01:10;94889.56;;;31.86;30.98
68889;BME280;55930;47.412;8.790;2022-10-16T09:07:03;94894.38;;;33.74;28.05
68889;BME280;55930;47.412;8.790;2022-10-16T09:20:34;94892.81;;;32.85;32.96
68889;BME280;55930;47.412;8.790;2022-10-16T09:25:30;94896.00;;;34.43;31.29
68889;BME280;55930;47.412;8.790;2022-10-16T09:28:03;94901.41;;;28.85;37.65
68889;BME280;55930;47.412;8.790;2022-10-16T09:30:29;94905.38;;;27.85;40.76
68889;BME280;55930;47.412;8.790;2022-10-16T09:32:58;94901.38;;;27.86;41.54
68889;BME280;55930;47.412;8.790;2022-10-16T09:38:09;94903.63;;;31.69;34.29
68889;BME280;55930;47.412;8.790;2022-10-16T09:40:46;94900.56;;;35.91;26.77
68889;BME280;55930;47.412;8.790;2022-10-16T09:46:21;94897.72;;;35.46;28.66
68889;BME280;55930;47.412;8.790;2022-10-16T09:48:51;94896.47;;;34.79;28.25
68889;BME280;55930;47.412;8.790;2022-10-16T09:53:47;94891.00;;;36.39;26.15
68889;BME280;55930;47.412;8.790;2022-10-16T09:56:23;94898.75;;;36.74;24.49
68889;BME280;55930;47.412;8.790;2022-10-16T09:58:50;94892.47;;;36.90;26.30
68889;BME280;55930;47.412;8.790;2022-10-16T10:01:18;94885.81;;;36.79;24.43
68889;BME280;55930;47.412;8.790;2022-10-16T10:03:44;94891.53;;;35.32;25.93
68889;BME280;55930;47.412;8.790;2022-10-16T10:06:21;94892.56;;;35.25;27.75
68889;BME280;55930;47.412;8.790;2022-10-16T10:08:54;94902.94;;;32.36;33.90
68889;BME280;55930;47.412;8.790;2022-10-16T10:11:40;94890.72;;;34.88;31.09
68889;BME280;55930;47.412;8.790;2022-10-16T10:14:15;94890.19;;;32.87;32.22
68889;BME280;55930;47.412;8.790;2022-10-16T10:16:41;94896.38;;;32.41;32.90
68889;BME280;55930;47.412;8.790;2022-10-16T10:19:18;94891.94;;;34.05;30.07
68889;BME280;55930;47.412;8.790;2022-10-16T10:21:45;94889.03;;;33.90;28.39
68889;BME280;55930;47.412;8.790;2022-10-16T10:24:16;94900.41;;;33.22;28.82
68889;BME280;55930;47.412;8.790;2022-10-16T10:27:08;94893.31;;;34.84;26.68
68889;BME280;55930;47.412;8.790;2022-10-16T10:32:23;94886.09;;;36.22;23.52
68889;BME280;55930;47.412;8.790;2022-10-16T10:35:13;94880.75;;;35.52;22.90
68889;BME280;55930;47.412;8.790;2022-10-16T10:42:57;94881.47;;;29.60;33.56
68889;BME280;55930;47.412;8.790;2022-10-16T10:45:41;94880.19;;;28.21;36.12
68889;BME280;55930;47.412;8.790;2022-10-16T10:50:53;94883.63;;;28.21;36.87
68889;BME280;55930;47.412;8.790;2022-10-16T10:59:46;94871.78;;;36.12;24.50
68889;BME280;55930;47.412;8.790;2022-10-16T11:05:34;94867.16;;;37.82;21.50
68889;BME280;55930;47.412;8.790;2022-10-16T11:07:38;94855.13;;;36.73;22.68
68889;BME280;55930;47.412;8.790;2022-10-16T11:10:16;94864.94;;;37.61;22.72
68889;BME280;55930;47.412;8.790;2022-10-16T11:12:53;94861.22;;;37.03;23.36
68889;BME280;55930;47.412;8.790;2022-10-16T11:15:25;94858.28;;;37.68;22.14
68889;BME280;55930;47.412;8.790;2022-10-16T11:20:50;94842.56;;;39.09;21.44
68889;BME280;55930;47.412;8.790;2022-10-16T11:26:16;94822.16;;;40.13;20.39
68889;BME280;55930;47.412;8.790;2022-10-16T11:28:49;94825.94;;;37.92;22.16
68889;BME280;55930;47.412;8.790;2022-10-16T11:31:34;94821.78;;;37.91;21.89
68889;BME280;55930;47.412;8.790;2022-10-16T11:36:51;94803.66;;;39.74;20.57
68889;BME280;55930;47.412;8.790;2022-10-16T11:39:24;94807.16;;;39.53;21.56
68889;BME280;55930;47.412;8.790;2022-10-16T11:44:27;94807.72;;;36.16;24.28
68889;BME280;55930;47.412;8.790;2022-10-16T11:47:01;94798.28;;;36.21;25.00
68889;BME280;55930;47.412;8.790;2022-10-16T11:49:36;94810.81;;;36.71;24.19
68889;BME280;55930;47.412;8.790;2022-10-16T11:52:17;94790.88;;;34.49;26.25
68889;BME280;55930;47.412;8.790;2022-10-16T11:54:59;94818.66;;;31.71;30.48
68889;BME280;55930;47.412;8.790;2022-10-16T11:57:37;94815.13;;;31.14;32.57
68889;BME280;55930;47.412;8.790;2022-10-16T12:08:10;94789.22;;;36.52;25.65
68889;BME280;55930;47.412;8.790;2022-10-16T12:10:40;94792.19;;;37.78;23.22
68889;BME280;55930;47.412;8.790;2022-10-16T12:13:35;94793.03;;;38.40;23.48
68889;BME280;55930;47.412;8.790;2022-10-16T12:16:07;94795.50;;;40.04;21.71
68889;BME280;55930;47.412;8.790;2022-10-16T12:18:45;94803.25;;;38.94;21.28
68889;BME280;55930;47.412;8.790;2022-10-16T12:21:16;94797.63;;;35.75;26.03
68889;BME280;55930;47.412;8.790;2022-10-16T12:23:54;94809.28;;;33.27;29.16
68889;BME280;55930;47.412;8.790;2022-10-16T12:26:37;94811.47;;;32.45;30.89
68889;BME280;55930;47.412;8.790;2022-10-16T12:29:36;94806.00;;;36.89;24.84
68889;BME280;55930;47.412;8.790;2022-10-16T12:32:18;94807.44;;;35.19;28.90
68889;BME280;55930;47.412;8.790;2022-10-16T12:34:52;94804.25;;;34.82;29.40
68889;BME280;55930;47.412;8.790;2022-10-16T12:37:24;94795.38;;;35.13;28.14
68889;BME280;55930;47.412;8.790;2022-10-16T12:39:52;94795.25;;;31.58;34.76
68889;BME280;55930;47.412;8.790;2022-10-16T12:44:57;94794.31;;;34.08;30.04
68889;BME280;55930;47.412;8.790;2022-10-16T12:49:56;94785.94;;;38.35;23.38
68889;BME280;55930;47.412;8.790;2022-10-16T12:54:56;94783.31;;;38.39;23.33
68889;BME280;55930;47.412;8.790;2022-10-16T13:09:04;94792.59;;;33.00;32.28
68889;BME280;55930;47.412;8.790;2022-10-16T13:19:50;94789.25;;;34.71;29.38
68889;BME280;55930;47.412;8.790;2022-10-16T13:22:41;94792.31;;;34.77;29.73
68889;BME280;55930;47.412;8.790;2022-10-16T13:25:48;94789.41;;;35.03;28.83
68889;BME280;55930;47.412;8.790;2022-10-16T13:28:10;94787.22;;;35.74;28.29
68889;BME280;55930;47.412;8.790;2022-10-16T13:30:40;94780.44;;;35.92;28.62
68889;BME280;55930;47.412;8.790;2022-10-16T13:33:16;94782.91;;;36.18;26.83
68889;BME280;55930;47.412;8.790;2022-10-16T13:35:54;94793.13;;;35.68;27.95
68889;BME280;55930;47.412;8.790;2022-10-16T13:38:25;94790.72;;;36.21;28.56
68889;BME280;55930;47.412;8.790;2022-10-16T13:41:17;94796.69;;;35.71;27.67
68889;BME280;55930;47.412;8.790;2022-10-16T13:43:45;94790.06;;;36.07;27.75
68889;BME280;55930;47.412;8.790;2022-10-16T13:46:14;94790.09;;;36.23;27.92
68889;BME280;55930;47.412;8.790;2022-10-16T13:48:40;94791.88;;;34.14;31.14
68889;BME280;55930;47.412;8.790;2022-10-16T13:51:15;94797.78;;;33.70;31.53
68889;BME280;55930;47.412;8.790;2022-10-16T13:53:41;94792.16;;;33.93;30.83
68889;BME280;55930;47.412;8.790;2022-10-16T13:56:11;94802.63;;;32.35;34.11
68889;BME280;55930;47.412;8.790;2022-10-16T13:58:36;94799.22;;;30.79;36.66
68889;BME280;55930;47.412;8.790;2022-10-16T14:01:04;94798.88;;;29.23;40.23
68889;BME280;55930;47.412;8.790;2022-10-16T14:03:31;94800.81;;;29.80;39.72
68889;BME280;55930;47.412;8.790;2022-10-16T14:06:00;94795.75;;;30.79;37.75
68889;BME280;55930;47.412;8.790;2022-10-16T14:08:28;94811.69;;;30.09;38.20
68889;BME280;55930;47.412;8.790;2022-10-16T14:10:57;94812.00;;;30.87;37.66
68889;BME280;55930;47.412;8.790;2022-10-16T14:13:31;94807.34;;;30.89;36.50
68889;BME280;55930;47.412;8.790;2022-10-16T14:16:00;94806.88;;;31.35;36.50
68889;BME280;55930;47.412;8.790;2022-10-16T14:18:28;94807.09;;;29.13;38.49
68889;BME280;55930;47.412;8.790;2022-10-16T14:20:54;94807.66;;;28.27;40.89
68889;BME280;55930;47.412;8.790;2022-10-16T14:23:31;94802.06;;;28.90;39.73
68889;BME280;55930;47.412;8.790;2022-10-16T14:28:36;94808.03;;;28.60;39.98
68889;BME280;55930;47.412;8.790;2022-10-16T14:33:47;94808.91;;;26.50;45.85
68889;BME280;55930;47.412;8.790;2022-10-16T14:36:16;94808.84;;;26.33;45.44
68889;BME280;55930;47.412;8.790;2022-10-16T14:39:04;94811.34;;;25.48;47.95
68889;BME280;55930;47.412;8.790;2022-10-16T14:41:32;94813.03;;;25.76;47.38
68889;BME280;55930;47.412;8.790;2022-10-16T14:44:05;94814.44;;;26.35;48.29
68889;BME280;55930;47.412;8.790;2022-10-16T14:46:38;94817.91;;;25.78;49.46
68889;BME280;55930;47.412;8.790;2022-10-16T14:49:15;94814.25;;;25.43;49.60
68889;BME280;55930;47.412;8.790;2022-10-16T14:51:42;94817.50;;;24.94;51.51
68889;BME280;55930;47.412;8.790;2022-10-16T14:54:10;94824.00;;;24.98;50.42
68889;BME280;55930;47.412;8.790;2022-10-16T14:59:19;94826.00;;;25.05;51.07
68889;BME280;55930;47.412;8.790;2022-10-16T15:01:47;94828.19;;;24.84;52.34
68889;BME280;55930;47.412;8.790;2022-10-16T15:04:13;94829.44;;;24.83;52.65
68889;BME280;55930;47.412;8.790;2022-10-16T15:06:39;94833.31;;;24.50;54.04
68889;BME280;55930;47.412;8.790;2022-10-16T15:09:07;94829.88;;;24.34;56.96
68889;BME280;55930;47.412;8.790;2022-10-16T15:11:32;94826.78;;;24.45;56.61
68889;BME280;55930;47.412;8.790;2022-10-16T15:13:58;94833.09;;;24.17;55.45